sensor_id;sensor_type;location;lat;lon;timestamp;P1;durP1;ratioP1;P2;durP2;ratioP2
23594;SDS011;11975;47.674;9.472;2022-08-02T00:01:50;30.85;;;29.15;;
23594;SDS011;11975;47.674;9.472;2022-08-02T00:04:16;31.40;;;29.60;;
23594;SDS011;11975;47.674;9.472;2022-08-02T00:06:42;31.45;;;29.65;;
23594;SDS011;11975;47.674;9.472;2022-08-02T00:09:08;32.80;;;30.60;;
23594;SDS011;11975;47.674;9.472;2022-08-02T00:11:34;31.45;;;29.65;;
23594;SDS011;11975;47.674;9.472;2022-08-02T00:14:00;30.45;;;28.75;;
23594;SDS011;11975;47.674;9.472;2022-08-02T00:16:26;29.35;;;27.65;;
23594;SDS011;11975;47.674;9.472;2022-08-02T00:18:52;31.52;;;29.73;;
23594;SDS011;11975;47.674;9.472;2022-08-02T00:21:18;30.40;;;28.70;;
23594;SDS011;11975;47.674;9.472;2022-08-02T00:23:44;30.23;;;28.52;;
23594;SDS011;11975;47.674;9.472;2022-08-02T00:26:10;28.55;;;26.95;;
23594;SDS011;11975;47.674;9.472;2022-08-02T00:28:36;28.67;;;27.08;;
23594;SDS011;11975;47.674;9.472;2022-08-02T00:31:02;28.73;;;27.13;;
23594;SDS011;11975;47.674;9.472;2022-08-02T00:33:28;29.38;;;27.75;;
23594;SDS011;11975;47.674;9.472;2022-08-02T00:35:54;28.98;;;27.38;;
23594;SDS011;11975;47.674;9.472;2022-08-02T00:38:20;29.88;;;28.17;;
23594;SDS011;11975;47.674;9.472;2022-08-02T00:40:51;31.35;;;29.58;;
23594;SDS011;11975;47.674;9.472;2022-08-02T00:43:17;31.88;;;30.08;;
23594;SDS011;11975;47.674;9.472;2022-08-02T00:45:43;33.10;;;31.00;;
23594;SDS011;11975;47.674;9.472;2022-08-02T00:48:11;32.92;;;31.02;;
23594;SDS011;11975;47.674;9.472;2022-08-02T00:50:38;30.83;;;29.10;;
23594;SDS011;11975;47.674;9.472;2022-08-02T00:53:05;31.15;;;29.35;;
23594;SDS011;11975;47.674;9.472;2022-08-02T00:55:31;29.60;;;27.90;;
23594;SDS011;11975;47.674;9.472;2022-08-02T00:57:57;30.58;;;28.80;;
23594;SDS011;11975;47.674;9.472;2022-08-02T01:00:23;28.25;;;26.65;;
23594;SDS011;11975;47.674;9.472;2022-08-02T01:02:49;30.37;;;28.67;;
23594;SDS011;11975;47.674;9.472;2022-08-02T01:05:15;28.63;;;27.02;;
23594;SDS011;11975;47.674;9.472;2022-08-02T01:07:41;29.52;;;27.85;;
23594;SDS011;11975;47.674;9.472;2022-08-02T01:10:08;27.75;;;26.17;;
23594;SDS011;11975;47.674;9.472;2022-08-02T01:12:34;27.03;;;25.53;;
23594;SDS011;11975;47.674;9.472;2022-08-02T01:15:04;28.50;;;26.80;;
23594;SDS011;11975;47.674;9.472;2022-08-02T01:20:40;28.85;;;27.25;;
23594;SDS011;11975;47.674;9.472;2022-08-02T01:28:59;27.45;;;25.90;;
23594;SDS011;11975;47.674;9.472;2022-08-02T01:31:31;28.15;;;26.55;;
23594;SDS011;11975;47.674;9.472;2022-08-02T01:36:46;27.20;;;25.65;;
23594;SDS011;11975;47.674;9.472;2022-08-02T01:39:16;28.67;;;26.77;;
23594;SDS011;11975;47.674;9.472;2022-08-02T01:41:44;29.02;;;27.42;;
23594;SDS011;11975;47.674;9.472;2022-08-02T01:44:11;28.92;;;27.23;;
23594;SDS011;11975;47.674;9.472;2022-08-02T01:46:38;29.55;;;27.85;;
23594;SDS011;11975;47.674;9.472;2022-08-02T01:49:06;28.30;;;26.70;;
23594;SDS011;11975;47.674;9.472;2022-08-02T01:51:35;28.38;;;26.77;;
23594;SDS011;11975;47.674;9.472;2022-08-02T01:54:21;28.50;;;26.88;;
23594;SDS011;11975;47.674;9.472;2022-08-02T01:56:47;27.95;;;26.35;;
23594;SDS011;11975;47.674;9.472;2022-08-02T01:59:15;29.42;;;27.77;;
23594;SDS011;11975;47.674;9.472;2022-08-02T02:01:43;29.50;;;27.80;;
23594;SDS011;11975;47.674;9.472;2022-08-02T02:04:10;29.30;;;27.67;;
23594;SDS011;11975;47.674;9.472;2022-08-02T02:06:37;28.20;;;26.60;;
23594;SDS011;11975;47.674;9.472;2022-08-02T02:09:04;29.83;;;28.13;;
23594;SDS011;11975;47.674;9.472;2022-08-02T02:11:30;31.10;;;29.33;;
23594;SDS011;11975;47.674;9.472;2022-08-02T02:13:57;29.25;;;27.63;;
23594;SDS011;11975;47.674;9.472;2022-08-02T02:16:23;29.85;;;28.05;;
23594;SDS011;11975;47.674;9.472;2022-08-02T02:18:51;29.58;;;27.88;;
23594;SDS011;11975;47.674;9.472;2022-08-02T02:21:18;30.27;;;28.58;;
23594;SDS011;11975;47.674;9.472;2022-08-02T02:23:44;29.20;;;27.50;;
23594;SDS011;11975;47.674;9.472;2022-08-02T02:26:10;28.98;;;27.38;;
23594;SDS011;11975;47.674;9.472;2022-08-02T02:28:38;30.30;;;28.60;;
23594;SDS011;11975;47.674;9.472;2022-08-02T02:31:14;29.63;;;27.93;;
23594;SDS011;11975;47.674;9.472;2022-08-02T02:33:46;29.02;;;27.42;;
23594;SDS011;11975;47.674;9.472;2022-08-02T02:36:15;29.65;;;27.95;;
23594;SDS011;11975;47.674;9.472;2022-08-02T02:38:42;29.85;;;28.15;;
23594;SDS011;11975;47.674;9.472;2022-08-02T02:41:09;30.27;;;28.57;;
23594;SDS011;11975;47.674;9.472;2022-08-02T02:43:35;29.48;;;27.83;;
23594;SDS011;11975;47.674;9.472;2022-08-02T02:46:02;28.75;;;27.15;;
23594;SDS011;11975;47.674;9.472;2022-08-02T02:50:55;29.87;;;28.17;;
23594;SDS011;11975;47.674;9.472;2022-08-02T02:53:22;28.88;;;27.20;;
23594;SDS011;11975;47.674;9.472;2022-08-02T02:55:48;29.30;;;27.63;;
23594;SDS011;11975;47.674;9.472;2022-08-02T02:58:15;28.93;;;27.20;;
23594;SDS011;11975;47.674;9.472;2022-08-02T03:00:41;28.35;;;26.75;;
23594;SDS011;11975;47.674;9.472;2022-08-02T03:03:25;28.50;;;26.80;;
23594;SDS011;11975;47.674;9.472;2022-08-02T03:05:52;28.10;;;26.50;;
23594;SDS011;11975;47.674;9.472;2022-08-02T03:08:18;27.83;;;26.23;;
23594;SDS011;11975;47.674;9.472;2022-08-02T03:10:43;28.50;;;26.90;;
23594;SDS011;11975;47.674;9.472;2022-08-02T03:13:10;28.52;;;26.92;;
23594;SDS011;11975;47.674;9.472;2022-08-02T03:15:37;27.40;;;25.83;;
23594;SDS011;11975;47.674;9.472;2022-08-02T03:18:04;28.17;;;26.58;;
23594;SDS011;11975;47.674;9.472;2022-08-02T03:20:33;27.85;;;26.25;;
23594;SDS011;11975;47.674;9.472;2022-08-02T03:22:59;27.38;;;25.77;;
23594;SDS011;11975;47.674;9.472;2022-08-02T03:25:25;27.45;;;25.95;;
23594;SDS011;11975;47.674;9.472;2022-08-02T03:27:51;27.75;;;26.05;;
23594;SDS011;11975;47.674;9.472;2022-08-02T03:30:17;28.65;;;27.05;;
23594;SDS011;11975;47.674;9.472;2022-08-02T03:32:43;27.98;;;26.38;;
23594;SDS011;11975;47.674;9.472;2022-08-02T03:35:11;27.55;;;25.95;;
23594;SDS011;11975;47.674;9.472;2022-08-02T03:37:39;27.55;;;25.95;;
23594;SDS011;11975;47.674;9.472;2022-08-02T03:40:06;26.77;;;25.23;;
23594;SDS011;11975;47.674;9.472;2022-08-02T03:42:33;27.60;;;26.00;;
23594;SDS011;11975;47.674;9.472;2022-08-02T03:44:59;26.25;;;24.75;;
23594;SDS011;11975;47.674;9.472;2022-08-02T03:47:26;26.88;;;25.38;;
23594;SDS011;11975;47.674;9.472;2022-08-02T03:49:53;26.65;;;25.15;;
23594;SDS011;11975;47.674;9.472;2022-08-02T03:52:19;27.42;;;25.65;;
23594;SDS011;11975;47.674;9.472;2022-08-02T03:54:45;26.90;;;25.40;;
23594;SDS011;11975;47.674;9.472;2022-08-02T03:57:11;25.75;;;24.25;;
23594;SDS011;11975;47.674;9.472;2022-08-02T03:59:41;25.60;;;24.10;;
23594;SDS011;11975;47.674;9.472;2022-08-02T04:02:08;26.23;;;24.73;;
23594;SDS011;11975;47.674;9.472;2022-08-02T04:04:35;26.15;;;24.67;;
23594;SDS011;11975;47.674;9.472;2022-08-02T04:07:01;25.73;;;24.23;;
23594;SDS011;11975;47.674;9.472;2022-08-02T04:09:27;26.48;;;24.98;;
23594;SDS011;11975;47.674;9.472;2022-08-02T04:11:53;27.05;;;25.55;;
23594;SDS011;11975;47.674;9.472;2022-08-02T04:14:19;25.50;;;24.10;;
23594;SDS011;11975;47.674;9.472;2022-08-02T04:16:47;25.60;;;24.20;;
23594;SDS011;11975;47.674;9.472;2022-08-02T04:19:36;26.45;;;24.95;;
23594;SDS011;11975;47.674;9.472;2022-08-02T04:22:05;26.00;;;24.55;;
23594;SDS011;11975;47.674;9.472;2022-08-02T04:24:37;27.25;;;25.65;;
23594;SDS011;11975;47.674;9.472;2022-08-02T04:27:04;26.17;;;24.70;;
23594;SDS011;11975;47.674;9.472;2022-08-02T04:31:57;25.27;;;23.87;;
23594;SDS011;11975;47.674;9.472;2022-08-02T04:34:24;25.65;;;24.20;;
23594;SDS011;11975;47.674;9.472;2022-08-02T04:36:50;24.77;;;23.38;;
23594;SDS011;11975;47.674;9.472;2022-08-02T04:39:16;26.05;;;24.55;;
23594;SDS011;11975;47.674;9.472;2022-08-02T04:41:42;25.83;;;24.40;;
23594;SDS011;11975;47.674;9.472;2022-08-02T04:44:09;26.60;;;25.10;;
23594;SDS011;11975;47.674;9.472;2022-08-02T04:46:36;33.10;;;31.17;;
23594;SDS011;11975;47.674;9.472;2022-08-02T04:49:02;35.65;;;33.63;;
23594;SDS011;11975;47.674;9.472;2022-08-02T04:51:28;36.72;;;34.65;;
23594;SDS011;11975;47.674;9.472;2022-08-02T04:53:54;42.10;;;39.65;;
23594;SDS011;11975;47.674;9.472;2022-08-02T04:56:20;33.80;;;31.83;;
23594;SDS011;11975;47.674;9.472;2022-08-02T04:58:45;23.42;;;22.13;;
23594;SDS011;11975;47.674;9.472;2022-08-02T05:01:11;21.83;;;20.52;;
23594;SDS011;11975;47.674;9.472;2022-08-02T05:03:37;20.65;;;19.48;;
23594;SDS011;11975;47.674;9.472;2022-08-02T05:06:03;18.98;;;17.95;;
23594;SDS011;11975;47.674;9.472;2022-08-02T05:08:29;19.13;;;18.02;;
23594;SDS011;11975;47.674;9.472;2022-08-02T05:10:55;18.65;;;17.65;;
23594;SDS011;11975;47.674;9.472;2022-08-02T05:13:21;19.02;;;17.95;;
23594;SDS011;11975;47.674;9.472;2022-08-02T05:15:47;19.10;;;18.00;;
23594;SDS011;11975;47.674;9.472;2022-08-02T05:18:15;18.70;;;17.50;;
23594;SDS011;11975;47.674;9.472;2022-08-02T05:20:41;18.50;;;17.50;;
23594;SDS011;11975;47.674;9.472;2022-08-02T05:23:07;18.70;;;17.60;;
23594;SDS011;11975;47.674;9.472;2022-08-02T05:25:33;18.42;;;17.42;;
23594;SDS011;11975;47.674;9.472;2022-08-02T05:27:59;19.13;;;17.95;;
23594;SDS011;11975;47.674;9.472;2022-08-02T05:30:25;17.67;;;16.67;;
23594;SDS011;11975;47.674;9.472;2022-08-02T05:32:51;18.33;;;17.33;;
23594;SDS011;11975;47.674;9.472;2022-08-02T05:35:17;23.05;;;18.15;;
23594;SDS011;11975;47.674;9.472;2022-08-02T05:37:45;18.63;;;17.63;;
23594;SDS011;11975;47.674;9.472;2022-08-02T05:40:11;18.55;;;17.52;;
23594;SDS011;11975;47.674;9.472;2022-08-02T05:42:37;17.70;;;16.70;;
23594;SDS011;11975;47.674;9.472;2022-08-02T05:45:03;16.95;;;16.05;;
23594;SDS011;11975;47.674;9.472;2022-08-02T05:47:30;17.65;;;16.58;;
23594;SDS011;11975;47.674;9.472;2022-08-02T05:49:56;17.50;;;16.52;;
23594;SDS011;11975;47.674;9.472;2022-08-02T05:52:23;18.05;;;17.05;;
23594;SDS011;11975;47.674;9.472;2022-08-02T05:54:56;18.33;;;17.23;;
23594;SDS011;11975;47.674;9.472;2022-08-02T06:00:12;16.98;;;16.08;;
23594;SDS011;11975;47.674;9.472;2022-08-02T06:07:39;16.60;;;15.70;;
23594;SDS011;11975;47.674;9.472;2022-08-02T06:10:07;17.42;;;16.42;;
23594;SDS011;11975;47.674;9.472;2022-08-02T06:15:05;16.77;;;15.88;;
23594;SDS011;11975;47.674;9.472;2022-08-02T06:17:32;15.53;;;14.63;;
23594;SDS011;11975;47.674;9.472;2022-08-02T06:19:58;15.95;;;15.05;;
23594;SDS011;11975;47.674;9.472;2022-08-02T06:22:28;16.80;;;15.90;;
23594;SDS011;11975;47.674;9.472;2022-08-02T06:24:54;16.08;;;15.18;;
23594;SDS011;11975;47.674;9.472;2022-08-02T06:27:26;16.70;;;15.70;;
23594;SDS011;11975;47.674;9.472;2022-08-02T06:29:53;16.73;;;15.77;;
23594;SDS011;11975;47.674;9.472;2022-08-02T06:32:19;16.13;;;15.23;;
23594;SDS011;11975;47.674;9.472;2022-08-02T06:34:45;16.48;;;15.52;;
23594;SDS011;11975;47.674;9.472;2022-08-02T06:42:56;16.23;;;15.32;;
23594;SDS011;11975;47.674;9.472;2022-08-02T06:45:38;16.65;;;15.75;;
23594;SDS011;11975;47.674;9.472;2022-08-02T06:48:05;16.40;;;15.50;;
23594;SDS011;11975;47.674;9.472;2022-08-02T06:50:32;17.15;;;16.25;;
23594;SDS011;11975;47.674;9.472;2022-08-02T06:52:58;16.95;;;16.05;;
23594;SDS011;11975;47.674;9.472;2022-08-02T06:55:25;16.38;;;15.48;;
23594;SDS011;11975;47.674;9.472;2022-08-02T06:57:52;16.42;;;15.52;;
23594;SDS011;11975;47.674;9.472;2022-08-02T07:00:18;15.85;;;14.95;;
23594;SDS011;11975;47.674;9.472;2022-08-02T07:02:44;17.05;;;15.95;;
23594;SDS011;11975;47.674;9.472;2022-08-02T07:05:10;17.70;;;16.60;;
23594;SDS011;11975;47.674;9.472;2022-08-02T07:07:36;16.30;;;15.40;;
23594;SDS011;11975;47.674;9.472;2022-08-02T07:10:02;16.02;;;14.95;;
23594;SDS011;11975;47.674;9.472;2022-08-02T07:12:29;15.75;;;14.85;;
23594;SDS011;11975;47.674;9.472;2022-08-02T07:14:57;16.60;;;15.70;;
23594;SDS011;11975;47.674;9.472;2022-08-02T07:17:24;17.25;;;16.25;;
23594;SDS011;11975;47.674;9.472;2022-08-02T07:19:50;17.27;;;16.30;;
23594;SDS011;11975;47.674;9.472;2022-08-02T07:22:16;16.90;;;16.00;;
23594;SDS011;11975;47.674;9.472;2022-08-02T07:24:43;17.00;;;16.05;;
23594;SDS011;11975;47.674;9.472;2022-08-02T07:27:09;16.40;;;15.50;;
23594;SDS011;11975;47.674;9.472;2022-08-02T07:29:35;16.23;;;15.27;;
23594;SDS011;11975;47.674;9.472;2022-08-02T07:32:01;16.47;;;15.57;;
23594;SDS011;11975;47.674;9.472;2022-08-02T07:34:27;15.70;;;14.80;;
23594;SDS011;11975;47.674;9.472;2022-08-02T07:36:53;15.30;;;14.50;;
23594;SDS011;11975;47.674;9.472;2022-08-02T07:39:20;15.15;;;14.35;;
23594;SDS011;11975;47.674;9.472;2022-08-02T07:41:46;15.63;;;14.73;;
23594;SDS011;11975;47.674;9.472;2022-08-02T07:44:16;15.30;;;14.50;;
23594;SDS011;11975;47.674;9.472;2022-08-02T07:46:42;16.50;;;15.50;;
23594;SDS011;11975;47.674;9.472;2022-08-02T07:49:09;15.80;;;14.80;;
23594;SDS011;11975;47.674;9.472;2022-08-02T07:51:35;14.68;;;13.88;;
23594;SDS011;11975;47.674;9.472;2022-08-02T07:54:01;15.73;;;14.82;;
23594;SDS011;11975;47.674;9.472;2022-08-02T07:56:27;15.73;;;14.82;;
23594;SDS011;11975;47.674;9.472;2022-08-02T07:58:53;16.47;;;15.57;;
23594;SDS011;11975;47.674;9.472;2022-08-02T08:01:19;15.70;;;14.80;;
23594;SDS011;11975;47.674;9.472;2022-08-02T08:03:46;14.35;;;13.55;;
23594;SDS011;11975;47.674;9.472;2022-08-02T08:06:11;14.83;;;14.03;;
23594;SDS011;11975;47.674;9.472;2022-08-02T08:08:37;15.13;;;14.23;;
23594;SDS011;11975;47.674;9.472;2022-08-02T08:11:03;16.00;;;15.10;;
23594;SDS011;11975;47.674;9.472;2022-08-02T08:13:30;16.05;;;14.93;;
23594;SDS011;11975;47.674;9.472;2022-08-02T08:15:56;16.03;;;15.13;;
23594;SDS011;11975;47.674;9.472;2022-08-02T08:18:22;15.90;;;15.00;;
23594;SDS011;11975;47.674;9.472;2022-08-02T08:20:49;16.70;;;15.80;;
23594;SDS011;11975;47.674;9.472;2022-08-02T08:23:16;15.57;;;14.68;;
23594;SDS011;11975;47.674;9.472;2022-08-02T08:25:42;15.80;;;14.90;;
23594;SDS011;11975;47.674;9.472;2022-08-02T08:28:08;16.67;;;15.77;;
23594;SDS011;11975;47.674;9.472;2022-08-02T08:30:34;16.40;;;15.50;;
23594;SDS011;11975;47.674;9.472;2022-08-02T08:32:59;16.30;;;15.40;;
23594;SDS011;11975;47.674;9.472;2022-08-02T08:35:25;16.00;;;14.90;;
23594;SDS011;11975;47.674;9.472;2022-08-02T08:37:51;15.80;;;14.90;;
23594;SDS011;11975;47.674;9.472;2022-08-02T08:40:17;14.93;;;14.13;;
23594;SDS011;11975;47.674;9.472;2022-08-02T08:42:43;15.95;;;15.05;;
23594;SDS011;11975;47.674;9.472;2022-08-02T08:45:09;15.57;;;14.60;;
23594;SDS011;11975;47.674;9.472;2022-08-02T08:47:36;16.27;;;15.38;;
23594;SDS011;11975;47.674;9.472;2022-08-02T08:50:05;15.15;;;14.27;;
23594;SDS011;11975;47.674;9.472;2022-08-02T08:53:01;14.98;;;14.18;;
23594;SDS011;11975;47.674;9.472;2022-08-02T08:55:31;15.90;;;15.00;;
23594;SDS011;11975;47.674;9.472;2022-08-02T08:57:58;15.73;;;14.82;;
23594;SDS011;11975;47.674;9.472;2022-08-02T09:00:25;15.02;;;14.23;;
23594;SDS011;11975;47.674;9.472;2022-08-02T09:05:17;15.50;;;14.65;;
23594;SDS011;11975;47.674;9.472;2022-08-02T09:07:47;16.08;;;15.18;;
23594;SDS011;11975;47.674;9.472;2022-08-02T09:13:09;15.77;;;14.85;;
23594;SDS011;11975;47.674;9.472;2022-08-02T09:15:37;15.40;;;14.60;;
23594;SDS011;11975;47.674;9.472;2022-08-02T09:18:04;15.40;;;14.55;;
23594;SDS011;11975;47.674;9.472;2022-08-02T09:23:06;14.65;;;13.85;;
23594;SDS011;11975;47.674;9.472;2022-08-02T09:25:34;13.68;;;12.98;;
23594;SDS011;11975;47.674;9.472;2022-08-02T09:28:01;14.25;;;13.45;;
23594;SDS011;11975;47.674;9.472;2022-08-02T09:30:28;14.23;;;13.43;;
23594;SDS011;11975;47.674;9.472;2022-08-02T09:32:54;13.57;;;12.87;;
23594;SDS011;11975;47.674;9.472;2022-08-02T09:35:30;14.23;;;13.43;;
23594;SDS011;11975;47.674;9.472;2022-08-02T09:38:10;14.32;;;13.52;;
23594;SDS011;11975;47.674;9.472;2022-08-02T09:40:37;14.50;;;13.70;;
23594;SDS011;11975;47.674;9.472;2022-08-02T09:43:04;13.07;;;12.38;;
23594;SDS011;11975;47.674;9.472;2022-08-02T09:45:31;13.90;;;13.15;;
23594;SDS011;11975;47.674;9.472;2022-08-02T09:48:07;13.90;;;13.13;;
23594;SDS011;11975;47.674;9.472;2022-08-02T09:50:37;14.30;;;13.50;;
23594;SDS011;11975;47.674;9.472;2022-08-02T09:53:04;14.52;;;13.73;;
23594;SDS011;11975;47.674;9.472;2022-08-02T09:55:31;15.18;;;14.27;;
23594;SDS011;11975;47.674;9.472;2022-08-02T09:57:57;15.00;;;14.20;;
23594;SDS011;11975;47.674;9.472;2022-08-02T10:00:23;13.30;;;12.60;;
23594;SDS011;11975;47.674;9.472;2022-08-02T10:03:08;13.97;;;13.23;;
23594;SDS011;11975;47.674;9.472;2022-08-02T10:08:31;14.90;;;14.10;;
23594;SDS011;11975;47.674;9.472;2022-08-02T10:10:57;14.40;;;13.60;;
23594;SDS011;11975;47.674;9.472;2022-08-02T10:15:57;15.52;;;14.73;;
23594;SDS011;11975;47.674;9.472;2022-08-02T10:18:23;14.70;;;13.90;;
23594;SDS011;11975;47.674;9.472;2022-08-02T10:20:49;15.75;;;14.40;;
23594;SDS011;11975;47.674;9.472;2022-08-02T10:25:42;14.15;;;13.35;;
23594;SDS011;11975;47.674;9.472;2022-08-02T10:28:09;15.25;;;14.45;;
23594;SDS011;11975;47.674;9.472;2022-08-02T10:30:38;14.65;;;13.85;;
23594;SDS011;11975;47.674;9.472;2022-08-02T10:33:06;15.90;;;15.00;;
23594;SDS011;11975;47.674;9.472;2022-08-02T10:35:34;15.07;;;14.27;;
23594;SDS011;11975;47.674;9.472;2022-08-02T10:38:06;15.85;;;14.95;;
23594;SDS011;11975;47.674;9.472;2022-08-02T10:40:53;15.70;;;14.80;;
23594;SDS011;11975;47.674;9.472;2022-08-02T10:57:32;14.90;;;14.10;;
23594;SDS011;11975;47.674;9.472;2022-08-02T11:02:31;15.43;;;14.63;;
23594;SDS011;11975;47.674;9.472;2022-08-02T11:07:31;15.80;;;14.47;;
23594;SDS011;11975;47.674;9.472;2022-08-02T11:09:57;15.18;;;14.38;;
23594;SDS011;11975;47.674;9.472;2022-08-02T11:12:24;15.35;;;14.45;;
23594;SDS011;11975;47.674;9.472;2022-08-02T11:14:59;15.65;;;14.77;;
23594;SDS011;11975;47.674;9.472;2022-08-02T11:20:16;15.35;;;14.45;;
23594;SDS011;11975;47.674;9.472;2022-08-02T11:22:43;15.18;;;14.38;;
23594;SDS011;11975;47.674;9.472;2022-08-02T11:27:48;16.10;;;15.20;;
23594;SDS011;11975;47.674;9.472;2022-08-02T11:30:17;16.27;;;15.38;;
23594;SDS011;11975;47.674;9.472;2022-08-02T11:32:44;16.20;;;15.30;;
23594;SDS011;11975;47.674;9.472;2022-08-02T11:35:10;17.00;;;16.10;;
23594;SDS011;11975;47.674;9.472;2022-08-02T11:37:37;16.10;;;15.20;;
23594;SDS011;11975;47.674;9.472;2022-08-02T11:40:08;15.07;;;14.27;;
23594;SDS011;11975;47.674;9.472;2022-08-02T11:42:36;16.35;;;15.45;;
23594;SDS011;11975;47.674;9.472;2022-08-02T11:45:04;16.05;;;15.15;;
23594;SDS011;11975;47.674;9.472;2022-08-02T11:47:31;16.33;;;15.43;;
23594;SDS011;11975;47.674;9.472;2022-08-02T11:50:07;15.23;;;14.43;;
23594;SDS011;11975;47.674;9.472;2022-08-02T11:52:34;15.77;;;14.88;;
23594;SDS011;11975;47.674;9.472;2022-08-02T11:57:26;15.90;;;15.00;;
23594;SDS011;11975;47.674;9.472;2022-08-02T11:59:52;16.65;;;15.65;;
23594;SDS011;11975;47.674;9.472;2022-08-02T12:02:20;15.60;;;14.70;;
23594;SDS011;11975;47.674;9.472;2022-08-02T12:07:26;16.75;;;15.77;;
23594;SDS011;11975;47.674;9.472;2022-08-02T12:10:00;15.63;;;14.77;;
23594;SDS011;11975;47.674;9.472;2022-08-02T12:12:27;16.23;;;15.32;;
23594;SDS011;11975;47.674;9.472;2022-08-02T12:14:53;17.25;;;16.25;;
23594;SDS011;11975;47.674;9.472;2022-08-02T12:17:22;16.17;;;15.27;;
23594;SDS011;11975;47.674;9.472;2022-08-02T12:20:11;17.02;;;16.13;;
23594;SDS011;11975;47.674;9.472;2022-08-02T12:22:37;16.92;;;16.00;;
23594;SDS011;11975;47.674;9.472;2022-08-02T12:25:19;15.88;;;14.98;;
23594;SDS011;11975;47.674;9.472;2022-08-02T12:27:47;16.30;;;15.40;;
23594;SDS011;11975;47.674;9.472;2022-08-02T12:30:14;16.00;;;15.10;;
23594;SDS011;11975;47.674;9.472;2022-08-02T12:32:42;15.43;;;14.60;;
23594;SDS011;11975;47.674;9.472;2022-08-02T12:35:15;15.50;;;14.63;;
23594;SDS011;11975;47.674;9.472;2022-08-02T12:37:42;15.60;;;14.70;;
23594;SDS011;11975;47.674;9.472;2022-08-02T12:40:16;14.85;;;14.05;;
23594;SDS011;11975;47.674;9.472;2022-08-02T12:42:47;14.73;;;13.93;;
23594;SDS011;11975;47.674;9.472;2022-08-02T12:45:24;14.07;;;13.27;;
23594;SDS011;11975;47.674;9.472;2022-08-02T12:47:53;15.38;;;14.38;;
23594;SDS011;11975;47.674;9.472;2022-08-02T12:50:21;15.38;;;14.38;;
23594;SDS011;11975;47.674;9.472;2022-08-02T12:52:50;14.48;;;13.68;;
23594;SDS011;11975;47.674;9.472;2022-08-02T12:55:31;14.63;;;13.82;;
23594;SDS011;11975;47.674;9.472;2022-08-02T12:57:58;14.85;;;14.05;;
23594;SDS011;11975;47.674;9.472;2022-08-02T13:00:28;13.20;;;12.48;;
23594;SDS011;11975;47.674;9.472;2022-08-02T13:02:55;13.70;;;13.00;;
23594;SDS011;11975;47.674;9.472;2022-08-02T13:07:47;14.13;;;13.32;;
23594;SDS011;11975;47.674;9.472;2022-08-02T13:10:13;14.77;;;13.98;;
23594;SDS011;11975;47.674;9.472;2022-08-02T13:12:39;14.13;;;13.32;;
23594;SDS011;11975;47.674;9.472;2022-08-02T13:15:06;14.60;;;13.60;;
23594;SDS011;11975;47.674;9.472;2022-08-02T13:17:32;16.17;;;15.13;;
23594;SDS011;11975;47.674;9.472;2022-08-02T13:19:58;14.20;;;13.40;;
23594;SDS011;11975;47.674;9.472;2022-08-02T13:22:24;14.57;;;13.77;;
23594;SDS011;11975;47.674;9.472;2022-08-02T13:24:50;15.13;;;14.23;;
23594;SDS011;11975;47.674;9.472;2022-08-02T13:27:16;14.87;;;14.07;;
23594;SDS011;11975;47.674;9.472;2022-08-02T13:32:09;13.50;;;12.80;;
23594;SDS011;11975;47.674;9.472;2022-08-02T13:34:35;13.90;;;13.18;;
23594;SDS011;11975;47.674;9.472;2022-08-02T13:37:01;14.32;;;13.52;;
23594;SDS011;11975;47.674;9.472;2022-08-02T13:39:28;14.30;;;13.50;;
23594;SDS011;11975;47.674;9.472;2022-08-02T13:41:54;13.45;;;12.75;;
23594;SDS011;11975;47.674;9.472;2022-08-02T13:44:20;13.00;;;12.30;;
23594;SDS011;11975;47.674;9.472;2022-08-02T13:46:46;14.10;;;13.30;;
23594;SDS011;11975;47.674;9.472;2022-08-02T13:49:12;14.13;;;13.33;;
23594;SDS011;11975;47.674;9.472;2022-08-02T13:51:38;14.25;;;13.45;;
23594;SDS011;11975;47.674;9.472;2022-08-02T13:54:04;14.20;;;13.40;;
23594;SDS011;11975;47.674;9.472;2022-08-02T13:56:30;12.95;;;12.25;;
23594;SDS011;11975;47.674;9.472;2022-08-02T13:58:56;13.65;;;12.95;;
23594;SDS011;11975;47.674;9.472;2022-08-02T14:01:25;13.98;;;13.18;;
23594;SDS011;11975;47.674;9.472;2022-08-02T14:03:51;14.57;;;13.77;;
23594;SDS011;11975;47.674;9.472;2022-08-02T14:06:21;13.52;;;12.82;;
23594;SDS011;11975;47.674;9.472;2022-08-02T14:08:47;15.20;;;14.32;;
23594;SDS011;11975;47.674;9.472;2022-08-02T14:11:14;13.63;;;12.93;;
23594;SDS011;11975;47.674;9.472;2022-08-02T14:13:40;13.98;;;13.18;;
23594;SDS011;11975;47.674;9.472;2022-08-02T14:16:06;14.13;;;13.33;;
23594;SDS011;11975;47.674;9.472;2022-08-02T14:18:31;14.10;;;13.30;;
23594;SDS011;11975;47.674;9.472;2022-08-02T14:20:57;13.50;;;12.80;;
23594;SDS011;11975;47.674;9.472;2022-08-02T14:23:23;13.63;;;12.93;;
23594;SDS011;11975;47.674;9.472;2022-08-02T14:25:49;12.93;;;12.23;;
23594;SDS011;11975;47.674;9.472;2022-08-02T14:28:15;13.10;;;12.40;;
23594;SDS011;11975;47.674;9.472;2022-08-02T14:30:41;13.40;;;12.70;;
23594;SDS011;11975;47.674;9.472;2022-08-02T14:33:07;13.15;;;12.45;;
23594;SDS011;11975;47.674;9.472;2022-08-02T14:35:33;14.18;;;13.27;;
23594;SDS011;11975;47.674;9.472;2022-08-02T14:37:59;13.90;;;13.10;;
23594;SDS011;11975;47.674;9.472;2022-08-02T14:40:25;13.10;;;12.30;;
23594;SDS011;11975;47.674;9.472;2022-08-02T14:42:51;13.05;;;12.35;;
23594;SDS011;11975;47.674;9.472;2022-08-02T14:45:17;12.68;;;11.93;;
23594;SDS011;11975;47.674;9.472;2022-08-02T14:47:47;13.77;;;12.98;;
23594;SDS011;11975;47.674;9.472;2022-08-02T14:50:14;13.13;;;12.43;;
23594;SDS011;11975;47.674;9.472;2022-08-02T14:52:45;13.30;;;12.60;;
23594;SDS011;11975;47.674;9.472;2022-08-02T14:55:12;13.15;;;12.45;;
23594;SDS011;11975;47.674;9.472;2022-08-02T14:57:38;12.63;;;11.93;;
23594;SDS011;11975;47.674;9.472;2022-08-02T15:00:05;13.52;;;12.82;;
23594;SDS011;11975;47.674;9.472;2022-08-02T15:04:57;13.40;;;12.70;;
23594;SDS011;11975;47.674;9.472;2022-08-02T15:07:23;13.80;;;13.00;;
23594;SDS011;11975;47.674;9.472;2022-08-02T15:09:49;13.90;;;12.63;;
23594;SDS011;11975;47.674;9.472;2022-08-02T15:12:15;13.80;;;13.00;;
23594;SDS011;11975;47.674;9.472;2022-08-02T15:14:41;12.95;;;12.25;;
23594;SDS011;11975;47.674;9.472;2022-08-02T15:17:07;12.55;;;11.85;;
23594;SDS011;11975;47.674;9.472;2022-08-02T15:19:33;13.63;;;12.82;;
23594;SDS011;11975;47.674;9.472;2022-08-02T15:21:59;13.05;;;12.35;;
23594;SDS011;11975;47.674;9.472;2022-08-02T15:24:25;13.45;;;12.70;;
23594;SDS011;11975;47.674;9.472;2022-08-02T15:26:51;13.07;;;12.38;;
23594;SDS011;11975;47.674;9.472;2022-08-02T15:31:44;12.60;;;11.90;;
23594;SDS011;11975;47.674;9.472;2022-08-02T15:34:10;12.98;;;12.27;;
23594;SDS011;11975;47.674;9.472;2022-08-02T15:36:36;13.07;;;12.38;;
23594;SDS011;11975;47.674;9.472;2022-08-02T15:39:02;13.95;;;13.15;;
23594;SDS011;11975;47.674;9.472;2022-08-02T15:41:28;13.35;;;12.65;;
23594;SDS011;11975;47.674;9.472;2022-08-02T15:43:54;13.10;;;12.40;;
23594;SDS011;11975;47.674;9.472;2022-08-02T15:46:20;12.80;;;12.10;;
23594;SDS011;11975;47.674;9.472;2022-08-02T15:48:46;13.40;;;12.70;;
23594;SDS011;11975;47.674;9.472;2022-08-02T15:51:12;13.60;;;12.80;;